createdAt,value
2022-08-07T00:00:25.615Z,1.38
2022-08-07T00:02:53.512Z,1.30
2022-08-07T00:05:23.617Z,1.20
2022-08-07T00:07:59.573Z,1.50
2022-08-07T00:10:29.651Z,1.05
2022-08-07T00:15:37.877Z,0.85
2022-08-07T00:18:06.522Z,0.80
2022-08-07T00:20:34.184Z,1.00
2022-08-07T00:23:01.975Z,0.90
2022-08-07T00:25:37.198Z,1.10
2022-08-07T00:28:08.973Z,1.03
2022-08-07T00:30:38.245Z,1.33
2022-08-07T00:33:05.610Z,1.52
2022-08-07T00:35:35.149Z,1.27
2022-08-07T00:38:04.185Z,1.25
2022-08-07T00:40:38.963Z,1.10
2022-08-07T00:43:58.881Z,1.20
2022-08-07T00:46:02.029Z,1.00
2022-08-07T00:48:31.836Z,0.90
2022-08-07T00:51:00.367Z,0.88
2022-08-07T00:53:39.377Z,1.27
2022-08-07T00:56:15.921Z,1.10
2022-08-07T00:58:47.273Z,1.08
2022-08-07T01:01:17.669Z,0.88
2022-08-07T01:03:56.252Z,1.13
2022-08-07T01:06:26.043Z,0.93
2022-08-07T01:08:55.699Z,0.90
2022-08-07T01:12:09.180Z,0.98
2022-08-07T01:14:15.381Z,0.80
2022-08-07T01:16:47.378Z,0.98
2022-08-07T01:19:19.662Z,0.90
2022-08-07T01:21:53.163Z,0.82
2022-08-07T01:24:25.737Z,1.02
2022-08-07T01:26:54.324Z,0.93
2022-08-07T01:29:27.736Z,0.93
2022-08-07T01:31:59.413Z,1.00
2022-08-07T01:34:31.998Z,1.08
2022-08-07T01:37:04.385Z,1.27
2022-08-07T01:39:40.952Z,1.08
2022-08-07T01:42:39.968Z,1.10
2022-08-07T01:45:22.909Z,1.42
2022-08-07T01:48:18.139Z,1.30
2022-08-07T01:50:47.779Z,1.50
2022-08-07T01:53:21.755Z,0.90
2022-08-07T01:56:07.375Z,1.08
2022-08-07T01:58:49.922Z,1.20
2022-08-07T02:01:59.677Z,1.42
2022-08-07T02:04:18.729Z,1.00
2022-08-07T02:06:56.220Z,0.93
2022-08-07T02:09:51.885Z,0.73
2022-08-07T02:12:19.528Z,0.90
2022-08-07T02:14:58.430Z,0.80
2022-08-07T02:17:35.154Z,0.93
2022-08-07T02:20:10.086Z,1.05
2022-08-07T02:22:47.982Z,1.08
2022-08-07T02:26:11.384Z,1.17
2022-08-07T02:28:14.292Z,1.17
2022-08-07T02:30:53.749Z,1.10
2022-08-07T02:33:21.576Z,1.05
2022-08-07T02:36:29.026Z,1.05
2022-08-07T02:38:38.740Z,1.00
2022-08-07T02:41:07.946Z,0.75
2022-08-07T02:43:39.778Z,0.82
2022-08-07T02:46:08.980Z,1.10
2022-08-07T02:48:37.667Z,0.98
2022-08-07T02:51:28.792Z,0.90
2022-08-07T02:54:03.045Z,0.98
2022-08-07T02:56:33.131Z,0.90
2022-08-07T02:59:04.442Z,0.80
2022-08-07T03:01:36.568Z,0.80
2022-08-07T03:04:14.012Z,0.80
2022-08-07T03:06:44.688Z,0.70
2022-08-07T03:09:14.534Z,0.70
2022-08-07T03:12:08.105Z,0.80
2022-08-07T03:14:52.191Z,0.82
2022-08-07T03:17:22.160Z,0.80
2022-08-07T03:19:55.684Z,0.85
2022-08-07T03:22:29.640Z,0.90
2022-08-07T03:25:01.679Z,0.63
2022-08-07T03:27:59.712Z,0.90
2022-08-07T03:30:26.112Z,0.73
2022-08-07T03:32:58.925Z,1.00
2022-08-07T03:35:37.903Z,0.65
2022-08-07T03:38:13.364Z,0.65
2022-08-07T03:40:44.179Z,0.80
2022-08-07T03:43:15.511Z,0.70
2022-08-07T03:45:51.310Z,1.20
2022-08-07T03:48:24.114Z,0.80
2022-08-07T03:50:56.207Z,1.00
2022-08-07T03:53:50.137Z,0.63
2022-08-07T03:56:32.696Z,0.73
2022-08-07T03:59:08.385Z,0.90
2022-08-07T04:01:43.271Z,0.80
2022-08-07T04:04:17.264Z,0.70
2022-08-07T04:06:50.829Z,0.90
2022-08-07T04:09:23.009Z,1.00
2022-08-07T04:12:27.317Z,0.55
2022-08-07T04:14:43.847Z,0.98
2022-08-07T04:19:52.424Z,0.70
2022-08-07T04:22:27.370Z,0.70
2022-08-07T04:24:58.044Z,0.90
2022-08-07T04:27:26.900Z,1.05
2022-08-07T04:30:01.797Z,1.08
2022-08-07T04:32:58.243Z,0.70
2022-08-07T04:35:35.081Z,0.90
2022-08-07T04:38:09.155Z,0.70
2022-08-07T04:40:51.976Z,1.42
2022-08-07T04:44:09.632Z,0.70
2022-08-07T04:46:29.270Z,0.90
2022-08-07T04:51:48.111Z,0.70
2022-08-07T04:54:30.048Z,0.93
2022-08-07T04:58:13.693Z,0.70
2022-08-07T05:00:10.673Z,0.80
2022-08-07T05:02:59.003Z,0.90
2022-08-07T05:05:52.858Z,0.70
2022-08-07T05:09:00.924Z,0.90
2022-08-07T05:11:58.269Z,0.80
2022-08-07T05:14:55.986Z,0.90
2022-08-07T05:17:52.900Z,0.98
2022-08-07T05:20:11.622Z,0.75
2022-08-07T05:22:43.250Z,0.90
2022-08-07T05:39:01.499Z,1.08
2022-08-07T05:41:11.952Z,0.70
2022-08-07T05:43:49.817Z,0.82
2022-08-07T05:54:12.677Z,0.75
2022-08-07T05:56:51.426Z,0.90
2022-08-07T05:59:21.089Z,0.83
2022-08-07T06:01:54.052Z,1.58
2022-08-07T06:07:03.891Z,1.10
2022-08-07T06:10:03.721Z,0.98
2022-08-07T06:12:31.910Z,1.00
2022-08-07T06:15:05.241Z,0.90
2022-08-07T06:17:38.169Z,1.38
2022-08-07T06:20:12.534Z,0.98
2022-08-07T06:23:02.128Z,1.10
2022-08-07T06:25:54.573Z,1.13
2022-08-07T06:28:27.528Z,1.10
2022-08-07T06:30:58.042Z,1.17
2022-08-07T06:33:26.974Z,0.98
2022-08-07T06:36:13.487Z,1.08
2022-08-07T06:42:02.305Z,1.10
2022-08-07T06:44:51.261Z,1.25
2022-08-07T06:47:21.388Z,1.20
2022-08-07T06:49:58.537Z,1.17
2022-08-07T06:52:36.496Z,1.38
2022-08-07T06:55:33.577Z,1.50
2022-08-07T06:58:09.559Z,0.95
2022-08-07T07:00:45.898Z,1.10
2022-08-07T07:03:17.097Z,1.05
2022-08-07T07:06:05.362Z,1.25
2022-08-07T07:08:34.965Z,1.00
2022-08-07T07:11:13.133Z,1.13
2022-08-07T07:13:57.374Z,1.00
2022-08-07T07:16:31.526Z,1.10
2022-08-07T07:19:54.581Z,0.90
2022-08-07T07:22:05.014Z,1.00
2022-08-07T07:24:43.172Z,1.13
2022-08-07T07:27:27.804Z,1.10
2022-08-07T07:30:08.830Z,1.25
2022-08-07T07:32:39.253Z,1.00
2022-08-07T07:35:09.923Z,1.00
2022-08-07T07:37:49.590Z,0.95
2022-08-07T07:40:26.141Z,1.02
2022-08-07T07:42:55.604Z,1.10
2022-08-07T07:46:37.922Z,1.20
2022-08-07T07:48:35.429Z,0.90
2022-08-07T07:51:07.551Z,1.00
2022-08-07T07:53:52.155Z,0.90
2022-08-07T07:56:30.230Z,1.00
2022-08-07T07:59:01.991Z,1.10
2022-08-07T08:02:03.464Z,1.00
2022-08-07T08:04:25.512Z,1.07
2022-08-07T08:06:53.681Z,1.23
2022-08-07T08:09:25.117Z,1.00
2022-08-07T08:12:02.102Z,1.05
2022-08-07T08:14:36.700Z,1.23
2022-08-07T08:17:56.615Z,0.95
2022-08-07T08:20:22.098Z,0.98
2022-08-07T08:23:11.091Z,2.38
2022-08-07T08:26:03.330Z,1.23
2022-08-07T08:28:37.662Z,0.98
2022-08-07T08:31:13.820Z,0.82
2022-08-07T08:33:49.498Z,1.13
2022-08-07T08:36:30.231Z,1.10
2022-08-07T08:39:01.925Z,1.20
2022-08-07T08:41:57.218Z,1.08
2022-08-07T08:44:44.627Z,1.00
2022-08-07T08:47:52.784Z,0.90
2022-08-07T08:50:35.312Z,2.08
2022-08-07T08:53:13.806Z,1.02
2022-08-07T08:55:59.661Z,1.20
2022-08-07T08:58:59.924Z,0.90
2022-08-07T09:01:59.503Z,0.88
2022-08-07T09:04:55.412Z,0.80
2022-08-07T09:08:02.774Z,0.70
2022-08-07T09:10:47.252Z,0.70
2022-08-07T09:13:15.372Z,0.68
2022-08-07T09:16:24.458Z,0.80
2022-08-07T09:18:47.333Z,0.60
2022-08-07T09:21:33.813Z,0.90
2022-08-07T09:24:59.197Z,1.05
2022-08-07T09:27:59.812Z,0.52
2022-08-07T09:30:49.707Z,0.47
2022-08-07T09:33:24.494Z,0.95
2022-08-07T09:36:27.021Z,0.70
2022-08-07T09:39:53.205Z,0.50
2022-08-07T09:42:25.232Z,0.50
2022-08-07T09:47:26.254Z,0.45
2022-08-07T09:48:56.174Z,0.60
2022-08-07T09:52:16.586Z,0.90
2022-08-07T09:54:45.123Z,0.85
2022-08-07T09:57:23.444Z,0.32
2022-08-07T10:00:00.770Z,0.30
2022-08-07T10:02:55.285Z,0.68
2022-08-07T10:05:38.661Z,0.57
2022-08-07T10:08:57.670Z,0.40
2022-08-07T10:12:13.294Z,0.80
2022-08-07T10:14:55.277Z,0.60
2022-08-07T10:17:22.757Z,0.43
2022-08-07T10:19:53.248Z,0.40
2022-08-07T10:22:45.331Z,0.52
2022-08-07T10:25:43.022Z,0.50
2022-08-07T10:28:49.626Z,0.60
2022-08-07T10:31:38.787Z,0.47
2022-08-07T10:34:15.236Z,0.43
2022-08-07T10:36:56.637Z,0.80
2022-08-07T10:39:41.353Z,0.52
2022-08-07T10:42:41.882Z,0.43
2022-08-07T10:45:59.021Z,0.40
2022-08-07T10:48:39.226Z,0.60
2022-08-07T10:51:57.705Z,0.70
2022-08-07T10:54:17.404Z,0.52
2022-08-07T10:57:29.485Z,0.50
2022-08-07T11:00:36.986Z,0.55
2022-08-07T11:03:23.410Z,0.68
2022-08-07T11:05:56.299Z,0.50
2022-08-07T11:08:46.009Z,0.50
2022-08-07T11:11:20.913Z,0.30
2022-08-07T11:14:43.663Z,0.60
2022-08-07T11:17:01.865Z,0.75
2022-08-07T11:19:40.169Z,0.40
2022-08-07T11:22:32.384Z,0.38
2022-08-07T11:25:17.914Z,0.60
2022-08-07T11:28:07.936Z,0.57
2022-08-07T11:31:02.718Z,0.50
2022-08-07T11:33:59.267Z,0.57
2022-08-07T11:36:56.654Z,0.70
2022-08-07T11:39:59.169Z,0.55
2022-08-07T11:42:30.708Z,0.70
2022-08-07T11:48:29.582Z,0.50
2022-08-07T11:51:09.741Z,0.40
2022-08-07T11:54:00.882Z,0.55
2022-08-07T11:56:56.171Z,0.63
2022-08-07T12:00:11.670Z,0.40
2022-08-07T12:02:30.075Z,0.47
2022-08-07T12:05:41.241Z,0.55
2022-08-07T12:08:25.675Z,0.40
2022-08-07T12:11:08.435Z,0.80
2022-08-07T12:14:13.358Z,0.63
2022-08-07T12:16:47.978Z,0.80
2022-08-07T12:19:56.521Z,0.68
2022-08-07T12:23:09.078Z,0.60
2022-08-07T12:26:05.472Z,0.50
2022-08-07T12:28:59.118Z,0.55
2022-08-07T12:31:53.032Z,0.38
2022-08-07T12:34:18.409Z,0.50
2022-08-07T12:36:50.034Z,0.38
2022-08-07T12:39:44.040Z,0.60
2022-08-07T12:42:13.097Z,0.57
2022-08-07T12:44:45.121Z,0.60
2022-08-07T12:47:49.292Z,0.50
2022-08-07T12:50:34.141Z,0.60
2022-08-07T12:56:18.524Z,0.50
2022-08-07T12:58:56.968Z,0.63
2022-08-07T13:01:32.640Z,0.57
2022-08-07T13:04:33.983Z,0.63
2022-08-07T13:08:13.900Z,0.60
2022-08-07T13:11:01.372Z,0.70
2022-08-07T13:13:47.007Z,0.50
2022-08-07T13:16:46.763Z,0.50
2022-08-07T13:19:45.828Z,0.70
2022-08-07T13:22:26.871Z,0.63
2022-08-07T13:25:28.796Z,0.68
2022-08-07T13:28:18.289Z,0.40
2022-08-07T13:31:02.026Z,0.60
2022-08-07T13:34:31.189Z,0.70
2022-08-07T13:36:41.246Z,0.52
2022-08-07T13:39:49.306Z,0.57
2022-08-07T13:42:14.673Z,0.52
2022-08-07T13:44:55.221Z,0.55
2022-08-07T13:48:06.304Z,0.70
2022-08-07T13:50:34.785Z,0.65
2022-08-07T13:53:21.880Z,0.47
2022-08-07T13:55:54.786Z,0.40
2022-08-07T13:58:56.135Z,0.80
2022-08-07T14:01:26.865Z,0.68
2022-08-07T14:04:05.244Z,0.60
2022-08-07T14:06:38.448Z,0.45
2022-08-07T14:09:16.961Z,0.40
2022-08-07T14:12:04.870Z,0.20
2022-08-07T14:14:48.601Z,0.60
2022-08-07T14:18:12.671Z,0.25
2022-08-07T14:20:40.693Z,0.50
2022-08-07T14:23:31.165Z,0.47
2022-08-07T14:26:28.654Z,0.70
2022-08-07T14:29:04.377Z,0.60
2022-08-07T14:31:42.741Z,0.80
2022-08-07T14:34:29.233Z,0.80
2022-08-07T14:37:01.942Z,0.60
2022-08-07T14:40:14.541Z,0.60
2022-08-07T14:42:32.541Z,0.80
2022-08-07T14:47:53.051Z,0.88
2022-08-07T14:53:16.490Z,0.40
2022-08-07T14:56:06.680Z,0.50
2022-08-07T14:58:45.157Z,0.68
2022-08-07T15:01:22.741Z,0.88
2022-08-07T15:06:40.349Z,0.60
2022-08-07T15:09:57.559Z,0.60
2022-08-07T15:12:25.885Z,0.70
2022-08-07T15:15:21.392Z,0.70
2022-08-07T15:17:57.313Z,0.80
2022-08-07T15:20:35.729Z,0.75
2022-08-07T15:25:15.979Z,0.63
2022-08-07T15:26:21.123Z,0.60
2022-08-07T15:28:58.398Z,0.50
2022-08-07T15:32:02.023Z,0.70
2022-08-07T15:34:50.548Z,0.75
2022-08-07T15:37:27.980Z,0.70
2022-08-07T15:39:59.022Z,0.43
2022-08-07T15:45:55.673Z,0.50
2022-08-07T15:48:36.581Z,0.50
2022-08-07T15:54:13.970Z,0.40
2022-08-07T15:56:42.674Z,1.42
2022-08-07T15:59:16.468Z,0.80
2022-08-07T16:02:02.241Z,0.70
2022-08-07T16:04:33.517Z,0.70
2022-08-07T16:07:05.050Z,0.43
2022-08-07T16:09:57.200Z,0.40
2022-08-07T16:13:01.264Z,0.40
2022-08-07T16:15:57.965Z,0.73
2022-08-07T16:18:49.410Z,0.60
2022-08-07T16:22:04.323Z,0.50
2022-08-07T16:24:38.487Z,0.80
2022-08-07T16:27:39.931Z,0.80
2022-08-07T16:30:31.656Z,0.82
2022-08-07T16:34:02.030Z,0.70
2022-08-07T16:36:31.146Z,0.60
2022-08-07T16:39:33.532Z,0.40
2022-08-07T16:42:31.834Z,0.50
2022-08-07T16:46:21.400Z,1.52
2022-08-07T16:48:34.505Z,0.50
2022-08-07T16:51:57.642Z,0.70
2022-08-07T16:54:34.733Z,0.98
2022-08-07T16:57:16.093Z,0.88
2022-08-07T17:00:14.931Z,0.93
2022-08-07T17:03:59.365Z,0.50
2022-08-07T17:07:02.965Z,0.60
2022-08-07T17:10:08.153Z,0.30
2022-08-07T17:12:54.479Z,0.70
2022-08-07T17:15:50.684Z,0.30
2022-08-07T17:18:46.071Z,0.95
2022-08-07T17:21:22.995Z,0.70
2022-08-07T17:24:02.020Z,0.60
2022-08-07T17:27:00.017Z,0.60
2022-08-07T17:30:15.975Z,0.60
2022-08-07T17:32:52.034Z,0.75
2022-08-07T17:35:50.809Z,0.70
2022-08-07T17:38:33.414Z,0.90
2022-08-07T17:42:01.695Z,1.00
2022-08-07T17:44:33.943Z,0.65
2022-08-07T17:47:58.678Z,0.93
2022-08-07T17:50:30.619Z,1.33
2022-08-07T17:53:06.829Z,0.77
2022-08-07T17:56:06.828Z,0.60
2022-08-07T17:58:46.209Z,0.73
2022-08-07T18:01:28.892Z,0.60
2022-08-07T18:04:24.640Z,1.00
2022-08-07T18:07:28.525Z,0.77
2022-08-07T18:10:29.001Z,0.60
2022-08-07T18:13:00.547Z,0.70
2022-08-07T18:15:56.757Z,0.57
2022-08-07T18:18:44.995Z,0.57
2022-08-07T18:21:57.825Z,0.70
2022-08-07T18:24:35.314Z,0.57
2022-08-07T18:27:02.805Z,0.75
2022-08-07T18:30:04.263Z,1.00
2022-08-07T18:33:15.307Z,0.60
2022-08-07T18:36:08.137Z,0.45
2022-08-07T18:40:05.422Z,0.60
2022-08-07T18:42:08.398Z,1.00
2022-08-07T18:45:40.299Z,0.80
2022-08-07T18:48:01.079Z,0.73
2022-08-07T18:50:45.895Z,0.63
2022-08-07T18:53:36.553Z,0.75
2022-08-07T18:56:15.506Z,1.13
2022-08-07T18:58:52.645Z,0.90
2022-08-07T19:02:19.190Z,0.95
2022-08-07T19:04:58.131Z,0.57
2022-08-07T19:07:51.825Z,0.60
2022-08-07T19:10:31.592Z,0.70
2022-08-07T19:13:21.507Z,0.50
2022-08-07T19:19:06.887Z,0.60
2022-08-07T19:22:11.230Z,0.70
2022-08-07T19:24:48.024Z,0.70
2022-08-07T19:28:57.947Z,0.63
2022-08-07T19:31:05.544Z,0.60
2022-08-07T19:33:13.256Z,0.65
2022-08-07T19:35:46.132Z,0.70
2022-08-07T19:38:17.791Z,0.60
2022-08-07T19:40:50.450Z,0.60
2022-08-07T19:43:44.882Z,0.70
2022-08-07T19:46:17.772Z,0.70
2022-08-07T19:48:53.612Z,0.57
2022-08-07T19:51:24.371Z,0.68
2022-08-07T19:54:31.938Z,0.80
2022-08-07T19:58:00.891Z,0.80
2022-08-07T19:59:57.129Z,0.65
2022-08-07T20:02:39.136Z,0.60
2022-08-07T20:05:09.801Z,0.80
2022-08-07T20:07:47.498Z,1.48
2022-08-07T20:10:37.235Z,0.80
2022-08-07T20:13:23.079Z,1.10
2022-08-07T20:15:53.714Z,1.45
2022-08-07T20:18:32.721Z,1.23
2022-08-07T20:21:14.244Z,1.00
2022-08-07T20:24:01.096Z,1.10
2022-08-07T20:26:38.710Z,1.17
2022-08-07T20:29:48.146Z,1.25
2022-08-07T20:32:11.570Z,1.50
2022-08-07T20:34:57.478Z,1.40
2022-08-07T20:37:33.781Z,1.17
2022-08-07T20:40:05.279Z,1.08
2022-08-07T20:42:56.430Z,1.30
2022-08-07T20:46:24.971Z,1.70
2022-08-07T20:48:28.717Z,2.70
2022-08-07T20:51:00.126Z,2.20
2022-08-07T20:54:02.992Z,1.75
2022-08-07T20:56:16.540Z,3.15
2022-08-07T20:58:58.622Z,5.97
2022-08-07T21:01:26.769Z,3.10
2022-08-07T21:04:22.100Z,1.90
2022-08-07T21:06:53.480Z,4.38
2022-08-07T21:09:24.246Z,2.67
2022-08-07T21:11:57.201Z,2.42
2022-08-07T21:14:33.599Z,2.55
2022-08-07T21:18:01.978Z,1.90
2022-08-07T21:20:04.648Z,1.88
2022-08-07T21:22:51.367Z,1.05
2022-08-07T21:25:30.306Z,1.10
2022-08-07T21:28:13.580Z,1.00
2022-08-07T21:31:05.974Z,0.93
2022-08-07T21:33:43.280Z,0.95
2022-08-07T21:36:49.933Z,1.17
2022-08-07T21:39:54.960Z,0.80
2022-08-07T21:42:48.504Z,1.40
2022-08-07T21:46:09.455Z,0.88
2022-08-07T21:48:41.504Z,1.10
2022-08-07T21:51:54.975Z,0.80
2022-08-07T21:54:35.301Z,1.42
2022-08-07T21:57:10.973Z,1.02
2022-08-07T22:00:05.814Z,0.90
2022-08-07T22:02:53.395Z,1.02
2022-08-07T22:05:44.242Z,1.02
2022-08-07T22:08:12.811Z,1.13
2022-08-07T22:10:42.289Z,1.40
2022-08-07T22:13:14.358Z,1.42
2022-08-07T22:16:43.041Z,1.08
2022-08-07T22:18:40.938Z,1.30
2022-08-07T22:21:11.480Z,1.10
2022-08-07T22:23:40.187Z,1.20
2022-08-07T22:26:30.264Z,1.20
2022-08-07T22:29:13.907Z,1.20
2022-08-07T22:32:06.106Z,0.98
2022-08-07T22:35:00.012Z,1.17
2022-08-07T22:38:03.155Z,1.08
2022-08-07T22:40:53.189Z,1.02
2022-08-07T22:43:34.101Z,1.10
2022-08-07T22:47:03.750Z,1.20
2022-08-07T22:49:37.819Z,1.00
2022-08-07T22:52:37.467Z,0.90
2022-08-07T22:55:23.045Z,1.63
2022-08-07T22:58:04.796Z,1.50
2022-08-07T23:01:06.288Z,1.20
2022-08-07T23:06:51.359Z,1.15
2022-08-07T23:10:00.624Z,1.38
2022-08-07T23:12:34.562Z,1.42
2022-08-07T23:16:05.461Z,1.10
2022-08-07T23:18:35.430Z,1.33
2022-08-07T23:21:51.673Z,1.30
2022-08-07T23:24:56.081Z,0.93
2022-08-07T23:27:34.748Z,1.15
2022-08-07T23:30:39.637Z,0.90
2022-08-07T23:34:33.462Z,1.00
2022-08-07T23:36:02.104Z,1.45
2022-08-07T23:38:54.700Z,1.30
2022-08-07T23:41:33.887Z,1.20
2022-08-07T23:44:37.597Z,1.77
2022-08-07T23:49:50.015Z,1.40
2022-08-07T23:55:53.348Z,2.13
2022-08-07T23:58:38.547Z,1.50
